Terminal Aerodrome Forecast
Issued by NWS

Home | Current Version | Previous Version | Text Only | Print | Product List | Glossary On
Versions: 1 2 3 4 5 6 7 8 9 10 11 12 13 14 15 16 17 18 19
000
FTUS46 KSGX 212300
TAFCRQ
TAF
KCRQ 212340Z 2200/2224 VRB04KT P6SM FEW012
     FM220700 VRB04KT P6SM OVC012
     FM221700 VRB04KT P6SM FEW012
     FM222100 27008KT P6SM SKC=

USA.gov is the U.S. government's official web portal to all federal, state and local government web resources and services.